createdAt,value
2022-11-27T00:01:36.065Z,66.80
2022-11-27T00:04:04.601Z,66.80
2022-11-27T00:06:32.384Z,66.80
2022-11-27T00:09:01.795Z,66.80
2022-11-27T00:11:30.557Z,66.80
2022-11-27T00:14:00.202Z,66.80
2022-11-27T00:16:28.338Z,66.70
2022-11-27T00:18:55.435Z,66.60
2022-11-27T00:21:29.611Z,66.60
2022-11-27T00:23:59.475Z,66.50
2022-11-27T00:26:30.875Z,66.50
2022-11-27T00:29:01.714Z,66.60
2022-11-27T00:31:34.072Z,66.50
2022-11-27T00:34:04.037Z,66.40
2022-11-27T00:36:33.463Z,66.40
2022-11-27T00:39:03.852Z,66.40
2022-11-27T00:41:31.740Z,66.50
2022-11-27T00:44:01.375Z,66.50
2022-11-27T00:46:31.489Z,66.60
2022-11-27T00:49:06.440Z,66.60
2022-11-27T00:51:33.821Z,66.60
2022-11-27T00:54:03.150Z,66.70
2022-11-27T00:56:38.569Z,66.60
2022-11-27T00:59:07.107Z,66.60
2022-11-27T01:01:41.171Z,66.70
2022-11-27T01:04:13.239Z,66.60
2022-11-27T01:06:40.643Z,66.60
2022-11-27T01:09:10.632Z,66.60
2022-11-27T01:11:40.079Z,66.60
2022-11-27T01:14:14.527Z,67.40
2022-11-27T01:16:44.045Z,66.40
2022-11-27T01:19:13.226Z,66.40
2022-11-27T01:21:41.052Z,66.40
2022-11-27T01:24:08.827Z,66.40
2022-11-27T01:26:38.178Z,66.40
2022-11-27T01:29:08.134Z,66.40
2022-11-27T01:31:37.695Z,66.50
2022-11-27T01:34:08.995Z,66.50
2022-11-27T01:36:36.136Z,66.50
2022-11-27T01:39:04.043Z,66.60
2022-11-27T01:41:36.457Z,66.50
2022-11-27T01:44:26.030Z,66.60
2022-11-27T01:47:02.150Z,66.30
2022-11-27T01:49:49.320Z,67.20
2022-11-27T01:52:32.520Z,66.40
2022-11-27T01:55:04.525Z,66.40
2022-11-27T01:57:41.544Z,66.50
2022-11-27T02:00:14.829Z,66.50
2022-11-27T02:02:46.993Z,66.60
2022-11-27T02:05:24.253Z,66.60
2022-11-27T02:07:55.409Z,66.60
2022-11-27T02:10:34.362Z,66.60
2022-11-27T02:13:38.293Z,66.60
2022-11-27T02:16:37.109Z,66.60
2022-11-27T02:19:39.643Z,66.60
2022-11-27T02:23:09.463Z,66.70
2022-11-27T02:26:02.146Z,66.60
2022-11-27T02:28:31.982Z,66.70
2022-11-27T02:31:17.008Z,66.70
2022-11-27T02:33:47.193Z,66.80
2022-11-27T02:36:22.857Z,66.80
2022-11-27T02:39:01.882Z,66.80
2022-11-27T02:41:51.544Z,66.80
2022-11-27T02:44:22.273Z,66.80
2022-11-27T02:46:50.223Z,66.80
2022-11-27T02:49:20.241Z,66.80
2022-11-27T02:51:56.162Z,66.80
2022-11-27T02:54:29.488Z,66.60
2022-11-27T02:57:05.087Z,66.70
2022-11-27T02:59:33.810Z,66.60
2022-11-27T03:02:10.093Z,66.60
2022-11-27T03:04:48.146Z,66.60
2022-11-27T03:07:59.354Z,66.60
2022-11-27T03:11:06.112Z,66.60
2022-11-27T03:13:42.272Z,66.70
2022-11-27T03:16:35.691Z,66.60
2022-11-27T03:19:17.333Z,66.50
2022-11-27T03:21:55.790Z,66.50
2022-11-27T03:24:23.297Z,66.60
2022-11-27T03:26:52.143Z,66.50
2022-11-27T03:29:31.388Z,66.50
2022-11-27T03:31:58.405Z,66.60
2022-11-27T03:34:26.261Z,66.70
2022-11-27T03:36:53.064Z,66.60
2022-11-27T03:39:21.604Z,66.60
2022-11-27T03:42:15.886Z,66.50
2022-11-27T03:44:53.499Z,66.40
2022-11-27T03:47:29.197Z,66.40
2022-11-27T03:50:18.077Z,66.40
2022-11-27T03:53:06.047Z,66.30
2022-11-27T03:55:35.632Z,66.30
2022-11-27T03:58:09.742Z,66.40
2022-11-27T04:00:43.677Z,66.40
2022-11-27T04:03:15.668Z,66.50
2022-11-27T04:05:42.578Z,66.50
2022-11-27T04:08:11.943Z,66.50
2022-11-27T04:10:41.354Z,67.40
2022-11-27T04:13:08.263Z,66.50
2022-11-27T04:15:37.415Z,66.50
2022-11-27T04:18:04.527Z,66.50
2022-11-27T04:20:34.202Z,66.50
2022-11-27T04:23:03.747Z,66.50
2022-11-27T04:25:30.761Z,66.50
2022-11-27T04:27:57.696Z,66.50
2022-11-27T04:30:27.051Z,66.50
2022-11-27T04:32:53.901Z,66.60
2022-11-27T04:35:20.792Z,66.50
2022-11-27T04:37:47.601Z,66.50
2022-11-27T04:40:14.718Z,66.50
2022-11-27T04:42:44.106Z,66.50
2022-11-27T04:45:11.503Z,66.50
2022-11-27T04:47:41.369Z,66.60
2022-11-27T04:50:11.291Z,66.50
2022-11-27T04:52:38.096Z,66.50
2022-11-27T04:55:06.021Z,66.50
2022-11-27T04:57:35.382Z,66.50
2022-11-27T05:00:05.253Z,66.50
2022-11-27T05:02:32.265Z,66.50
2022-11-27T05:05:01.299Z,66.60
2022-11-27T05:07:30.704Z,66.50
2022-11-27T05:09:59.888Z,66.50
2022-11-27T05:12:26.770Z,66.50
2022-11-27T05:14:55.800Z,66.40
2022-11-27T05:17:22.868Z,66.40
2022-11-27T05:19:49.709Z,66.50
2022-11-27T05:22:16.526Z,66.50
2022-11-27T05:24:46.435Z,66.40
2022-11-27T05:27:13.309Z,66.30
2022-11-27T05:29:40.324Z,66.30
2022-11-27T05:32:07.180Z,66.30
2022-11-27T05:34:36.249Z,66.30
2022-11-27T05:37:03.094Z,66.30
2022-11-27T05:39:32.510Z,66.30
2022-11-27T05:41:59.341Z,66.20
2022-11-27T05:44:29.461Z,66.30
2022-11-27T05:46:57.288Z,66.30
2022-11-27T05:49:24.305Z,66.30
2022-11-27T05:51:51.880Z,66.40
2022-11-27T05:54:23.980Z,66.40
2022-11-27T05:56:50.811Z,66.40
2022-11-27T05:59:20.668Z,66.40
2022-11-27T06:01:50.606Z,66.40
2022-11-27T06:04:20.137Z,66.40
2022-11-27T06:06:49.280Z,66.40
2022-11-27T06:09:16.293Z,66.50
2022-11-27T06:11:47.668Z,66.50
2022-11-27T06:14:14.500Z,66.40
2022-11-27T06:16:43.875Z,66.40
2022-11-27T06:19:10.821Z,66.40
2022-11-27T06:21:37.797Z,66.50
2022-11-27T06:24:09.890Z,66.40
2022-11-27T06:26:36.837Z,66.40
2022-11-27T06:29:08.766Z,66.40
2022-11-27T06:31:36.125Z,66.40
2022-11-27T06:34:12.833Z,66.80
2022-11-27T06:36:46.403Z,66.40
2022-11-27T06:39:16.365Z,66.40
2022-11-27T06:41:43.518Z,66.30
2022-11-27T06:44:10.972Z,66.20
2022-11-27T06:46:38.054Z,66.00
2022-11-27T06:49:05.147Z,66.00
2022-11-27T06:51:35.253Z,66.00
2022-11-27T06:54:02.830Z,66.10
2022-11-27T06:56:32.877Z,66.10
2022-11-27T06:59:03.501Z,66.20
2022-11-27T07:01:31.892Z,66.30
2022-11-27T07:03:59.294Z,66.30
2022-11-27T07:06:29.643Z,66.30
2022-11-27T07:08:59.020Z,66.20
2022-11-27T07:11:29.751Z,66.30
2022-11-27T07:14:00.706Z,66.30
2022-11-27T07:16:30.970Z,66.30
2022-11-27T07:19:06.944Z,66.30
2022-11-27T07:21:37.464Z,66.30
2022-11-27T07:24:06.837Z,66.30
2022-11-27T07:26:33.843Z,66.20
2022-11-27T07:29:00.777Z,66.00
2022-11-27T07:31:30.948Z,66.00
2022-11-27T07:33:58.492Z,66.20
2022-11-27T07:36:32.926Z,66.20
2022-11-27T07:38:59.840Z,66.20
2022-11-27T07:41:32.100Z,66.20
2022-11-27T07:44:01.004Z,66.20
2022-11-27T07:46:30.644Z,66.20
2022-11-27T07:48:58.209Z,66.20
2022-11-27T07:51:25.053Z,66.20
2022-11-27T07:53:54.147Z,66.20
2022-11-27T07:56:21.654Z,66.20
2022-11-27T07:58:51.461Z,66.20
2022-11-27T08:01:19.871Z,66.10
2022-11-27T08:03:47.426Z,66.30
2022-11-27T08:06:27.741Z,66.20
2022-11-27T08:08:58.051Z,66.20
2022-11-27T08:11:29.810Z,66.20
2022-11-27T08:14:02.859Z,66.20
2022-11-27T08:16:33.922Z,66.20
2022-11-27T08:19:01.103Z,67.00
2022-11-27T08:21:29.423Z,66.30
2022-11-27T08:23:57.659Z,66.30
2022-11-27T08:26:27.517Z,66.30
2022-11-27T08:28:58.110Z,66.30
2022-11-27T08:31:25.569Z,66.30
2022-11-27T08:33:54.791Z,66.20
2022-11-27T08:36:26.494Z,66.10
2022-11-27T08:38:54.307Z,66.20
2022-11-27T08:41:24.138Z,66.20
2022-11-27T08:43:51.348Z,66.20
2022-11-27T08:46:18.358Z,66.20
2022-11-27T08:48:45.235Z,66.10
2022-11-27T08:51:15.474Z,66.10
2022-11-27T08:53:45.732Z,66.10
2022-11-27T08:56:23.350Z,66.20
2022-11-27T08:58:50.567Z,66.20
2022-11-27T09:01:26.007Z,66.30
2022-11-27T09:03:53.424Z,66.30
2022-11-27T09:06:28.164Z,66.30
2022-11-27T09:09:00.134Z,66.40
2022-11-27T09:11:33.426Z,66.30
2022-11-27T09:14:08.753Z,66.30
2022-11-27T09:16:36.252Z,66.30
2022-11-27T09:19:03.462Z,66.30
2022-11-27T09:21:33.387Z,66.30
2022-11-27T09:24:03.191Z,66.30
2022-11-27T09:26:30.646Z,66.30
2022-11-27T09:28:59.410Z,66.30
2022-11-27T09:31:26.705Z,66.30
2022-11-27T09:33:55.837Z,66.30
2022-11-27T09:36:25.667Z,66.40
2022-11-27T09:38:53.622Z,66.50
2022-11-27T09:41:39.834Z,66.50
2022-11-27T09:44:23.000Z,66.60
2022-11-27T09:46:51.848Z,66.50
2022-11-27T09:49:33.756Z,66.50
2022-11-27T09:52:17.873Z,66.50
2022-11-27T09:55:01.030Z,66.50
2022-11-27T09:57:39.592Z,66.50
2022-11-27T10:00:19.380Z,66.60
2022-11-27T10:02:48.063Z,66.60
2022-11-27T10:05:24.915Z,66.50
2022-11-27T10:08:07.886Z,66.60
2022-11-27T10:10:53.168Z,66.60
2022-11-27T10:14:07.774Z,66.50
2022-11-27T10:16:45.030Z,66.50
2022-11-27T10:20:02.410Z,66.60
2022-11-27T10:22:57.298Z,66.60
2022-11-27T10:25:53.247Z,66.50
2022-11-27T10:28:42.043Z,66.50
2022-11-27T10:31:49.710Z,67.00
2022-11-27T10:34:34.903Z,66.50
2022-11-27T10:37:08.303Z,66.60
2022-11-27T10:39:45.319Z,66.60
2022-11-27T10:42:55.531Z,66.70
2022-11-27T10:45:57.811Z,66.60
2022-11-27T10:48:28.522Z,66.70
2022-11-27T10:50:56.266Z,66.80
2022-11-27T10:53:28.931Z,66.80
2022-11-27T10:56:31.387Z,67.00
2022-11-27T10:59:12.002Z,66.90
2022-11-27T11:01:54.767Z,66.90
2022-11-27T11:04:43.265Z,67.10
2022-11-27T11:07:27.583Z,67.00
2022-11-27T11:09:56.479Z,66.90
2022-11-27T11:12:24.544Z,66.90
2022-11-27T11:14:56.704Z,66.70
2022-11-27T11:17:40.741Z,66.40
2022-11-27T11:20:34.116Z,66.40
2022-11-27T11:23:00.997Z,66.20
2022-11-27T11:25:30.336Z,66.10
2022-11-27T11:27:57.459Z,66.10
2022-11-27T11:30:29.266Z,66.10
2022-11-27T11:33:04.290Z,66.20
2022-11-27T11:35:36.353Z,66.30
2022-11-27T11:38:16.843Z,66.30
2022-11-27T11:41:07.546Z,66.30
2022-11-27T11:43:37.978Z,66.50
2022-11-27T11:46:28.624Z,66.60
2022-11-27T11:49:23.789Z,66.50
2022-11-27T11:52:22.285Z,66.50
2022-11-27T11:55:11.744Z,66.40
2022-11-27T11:57:54.140Z,66.40
2022-11-27T12:00:30.258Z,66.40
2022-11-27T12:03:17.743Z,66.50
2022-11-27T12:06:17.342Z,66.40
2022-11-27T12:09:18.072Z,66.20
2022-11-27T12:11:53.795Z,66.00
2022-11-27T12:14:52.706Z,66.00
2022-11-27T12:18:07.111Z,66.10
2022-11-27T12:21:28.477Z,66.20
2022-11-27T12:24:19.436Z,66.30
2022-11-27T12:27:05.585Z,66.50
2022-11-27T12:29:53.035Z,66.50
2022-11-27T12:32:37.044Z,66.50
2022-11-27T12:35:19.486Z,66.80
2022-11-27T12:37:58.521Z,66.80
2022-11-27T12:40:53.439Z,66.80
2022-11-27T12:43:30.280Z,66.70
2022-11-27T12:46:17.063Z,66.60
2022-11-27T12:48:54.009Z,66.60
2022-11-27T12:51:32.169Z,66.70
2022-11-27T12:54:19.486Z,66.60
2022-11-27T12:57:13.962Z,66.50
2022-11-27T12:59:42.443Z,66.40
2022-11-27T13:02:24.582Z,66.50
2022-11-27T13:05:15.474Z,66.20
2022-11-27T13:08:40.052Z,66.10
2022-11-27T13:11:17.824Z,66.00
2022-11-27T13:13:50.203Z,66.10
2022-11-27T13:16:38.471Z,65.90
2022-11-27T13:19:33.386Z,65.60
2022-11-27T13:22:03.831Z,65.70
2022-11-27T13:24:31.109Z,65.80
2022-11-27T13:27:19.479Z,65.70
2022-11-27T13:29:57.842Z,65.60
2022-11-27T13:32:32.840Z,65.70
2022-11-27T13:35:06.988Z,65.80
2022-11-27T13:37:45.032Z,65.90
2022-11-27T13:40:30.873Z,65.90
2022-11-27T13:43:19.287Z,65.90
2022-11-27T13:45:46.503Z,65.90
2022-11-27T13:48:33.285Z,65.90
2022-11-27T13:51:00.797Z,65.80
2022-11-27T13:53:43.631Z,65.90
2022-11-27T13:56:10.611Z,65.90
2022-11-27T13:58:43.156Z,66.00
2022-11-27T14:01:24.768Z,65.80
2022-11-27T14:03:54.904Z,65.80
2022-11-27T14:06:30.583Z,66.00
2022-11-27T14:09:01.632Z,66.00
2022-11-27T14:11:43.618Z,65.80
2022-11-27T14:14:22.996Z,65.80
2022-11-27T14:17:04.937Z,65.80
2022-11-27T14:19:42.324Z,65.80
2022-11-27T14:23:10.039Z,65.80
2022-11-27T14:25:37.345Z,65.90
2022-11-27T14:28:19.652Z,65.90
2022-11-27T14:30:56.904Z,65.90
2022-11-27T14:34:13.650Z,65.90
2022-11-27T14:36:35.481Z,66.00
2022-11-27T14:39:03.644Z,66.10
2022-11-27T14:41:31.432Z,66.00
2022-11-27T14:44:14.811Z,66.80
2022-11-27T14:46:42.191Z,65.90
2022-11-27T14:49:19.431Z,65.90
2022-11-27T14:51:46.802Z,65.90
2022-11-27T14:54:36.535Z,65.90
2022-11-27T14:57:05.632Z,65.90
2022-11-27T14:59:36.063Z,65.90
2022-11-27T15:02:18.684Z,65.80
2022-11-27T15:04:49.008Z,65.90
2022-11-27T15:07:25.374Z,65.90
2022-11-27T15:10:00.225Z,66.00
2022-11-27T15:12:34.048Z,66.00
2022-11-27T15:15:07.667Z,66.10
2022-11-27T15:17:40.855Z,66.10
2022-11-27T15:20:34.709Z,66.20
2022-11-27T15:23:02.091Z,66.30
2022-11-27T15:25:43.743Z,66.30
2022-11-27T15:28:28.384Z,66.40
2022-11-27T15:30:57.126Z,66.30
2022-11-27T15:33:33.146Z,66.40
2022-11-27T15:36:18.885Z,66.40
2022-11-27T15:38:46.878Z,66.50
2022-11-27T15:41:27.808Z,66.40
2022-11-27T15:43:56.297Z,66.40
2022-11-27T15:46:31.978Z,66.50
2022-11-27T15:49:05.142Z,66.30
2022-11-27T15:51:32.258Z,66.50
2022-11-27T15:53:59.339Z,66.40
2022-11-27T15:56:26.219Z,66.40
2022-11-27T15:58:55.184Z,66.40
2022-11-27T16:01:26.715Z,66.30
2022-11-27T16:03:54.166Z,66.30
2022-11-27T16:06:24.746Z,66.50
2022-11-27T16:09:00.405Z,66.40
2022-11-27T16:11:30.231Z,66.30
2022-11-27T16:13:59.881Z,66.40
2022-11-27T16:16:27.412Z,66.50
2022-11-27T16:18:59.911Z,66.60
2022-11-27T16:21:30.453Z,66.80
2022-11-27T16:24:07.176Z,66.90
2022-11-27T16:26:36.892Z,67.00
2022-11-27T16:29:10.012Z,67.00
2022-11-27T16:31:37.361Z,67.00
2022-11-27T16:34:07.169Z,67.00
2022-11-27T16:36:37.150Z,66.90
2022-11-27T16:39:08.926Z,66.90
2022-11-27T16:41:36.314Z,66.90
2022-11-27T16:44:13.549Z,66.90
2022-11-27T16:46:41.438Z,67.10
2022-11-27T16:49:12.888Z,67.00
2022-11-27T16:51:41.005Z,67.00
2022-11-27T16:54:11.807Z,67.00
2022-11-27T16:56:38.735Z,67.00
2022-11-27T16:59:11.306Z,67.00
2022-11-27T17:01:42.378Z,67.00
2022-11-27T17:04:16.257Z,66.90
2022-11-27T17:06:45.748Z,66.90
2022-11-27T17:09:13.103Z,66.90
2022-11-27T17:11:48.473Z,66.90
2022-11-27T17:14:16.316Z,66.80
2022-11-27T17:16:43.509Z,66.80
2022-11-27T17:19:15.656Z,66.70
2022-11-27T17:21:45.065Z,66.80
2022-11-27T17:24:17.820Z,66.80
2022-11-27T17:26:48.964Z,66.60
2022-11-27T17:29:19.249Z,66.60
2022-11-27T17:31:48.523Z,66.70
2022-11-27T17:34:17.070Z,66.60
2022-11-27T17:36:46.735Z,66.70
2022-11-27T17:39:14.871Z,66.60
2022-11-27T17:41:46.375Z,66.70
2022-11-27T17:44:13.928Z,66.70
2022-11-27T17:46:41.180Z,66.70
2022-11-27T17:49:08.523Z,66.80
2022-11-27T17:51:36.593Z,66.80
2022-11-27T17:54:05.581Z,66.80
2022-11-27T17:56:35.300Z,66.70
2022-11-27T17:59:02.765Z,66.70
2022-11-27T18:01:31.189Z,66.80
2022-11-27T18:04:01.112Z,66.80
2022-11-27T18:06:28.466Z,66.80
2022-11-27T18:08:58.165Z,66.80
2022-11-27T18:11:29.558Z,66.90
2022-11-27T18:13:56.790Z,66.80
2022-11-27T18:16:30.641Z,66.90
2022-11-27T18:18:59.042Z,66.90
2022-11-27T18:21:28.542Z,66.90
2022-11-27T18:29:34.638Z,66.90
2022-11-27T18:32:01.645Z,66.90
2022-11-27T18:34:28.743Z,66.90
2022-11-27T18:36:57.474Z,66.90
2022-11-27T18:39:27.082Z,66.90
2022-11-27T18:41:56.543Z,67.00
2022-11-27T18:44:23.530Z,66.90
2022-11-27T18:46:52.813Z,66.90
2022-11-27T18:49:22.891Z,66.90
2022-11-27T18:51:51.776Z,66.90
2022-11-27T18:54:19.162Z,67.00
2022-11-27T18:56:46.542Z,67.00
2022-11-27T18:59:13.651Z,66.90
2022-11-27T19:01:42.708Z,66.90
2022-11-27T19:04:11.689Z,66.90
2022-11-27T19:06:42.944Z,66.90
2022-11-27T19:09:18.054Z,67.00
2022-11-27T19:11:44.969Z,66.90
2022-11-27T19:14:14.950Z,66.90
2022-11-27T19:16:47.133Z,67.00
2022-11-27T19:22:10.271Z,66.90
2022-11-27T19:24:37.582Z,67.00
2022-11-27T19:27:09.058Z,66.90
2022-11-27T19:29:36.320Z,66.90
2022-11-27T19:32:05.917Z,66.90
2022-11-27T19:34:35.097Z,66.90
2022-11-27T19:37:02.188Z,66.90
2022-11-27T19:39:31.627Z,66.90
2022-11-27T19:41:58.617Z,66.90
2022-11-27T19:44:26.033Z,67.00
2022-11-27T19:46:55.490Z,66.90
2022-11-27T19:49:22.682Z,66.90
2022-11-27T19:51:50.864Z,67.00
2022-11-27T19:54:19.354Z,66.90
2022-11-27T19:56:46.585Z,66.90
2022-11-27T19:59:24.237Z,66.90
2022-11-27T20:01:57.669Z,66.90
2022-11-27T20:04:24.759Z,66.90
2022-11-27T20:06:53.518Z,66.90
2022-11-27T20:09:20.682Z,66.80
2022-11-27T20:11:50.103Z,66.90
2022-11-27T20:14:20.227Z,66.80
2022-11-27T20:16:50.218Z,66.80
2022-11-27T20:19:17.242Z,66.80
2022-11-27T20:21:44.515Z,66.80
2022-11-27T20:24:11.813Z,66.80
2022-11-27T20:26:42.855Z,66.80
2022-11-27T20:29:14.166Z,66.80
2022-11-27T20:31:44.590Z,66.90
2022-11-27T20:34:19.728Z,66.90
2022-11-27T20:36:47.329Z,66.90
2022-11-27T20:39:20.525Z,66.90
2022-11-27T20:41:51.036Z,66.90
2022-11-27T20:44:18.486Z,66.90
2022-11-27T20:46:50.456Z,66.90
2022-11-27T20:49:20.803Z,66.90
2022-11-27T20:51:52.098Z,66.90
2022-11-27T20:54:19.245Z,66.80
2022-11-27T20:56:47.533Z,66.80
2022-11-27T20:59:17.131Z,66.80
2022-11-27T21:01:44.162Z,66.80
2022-11-27T21:04:21.881Z,66.80
2022-11-27T21:06:49.017Z,66.70
2022-11-27T21:09:19.222Z,66.80
2022-11-27T21:11:47.683Z,66.70
2022-11-27T21:14:18.677Z,66.70
2022-11-27T21:16:51.553Z,66.80
2022-11-27T21:19:25.363Z,66.70
2022-11-27T21:21:57.246Z,66.70
2022-11-27T21:24:29.869Z,66.60
2022-11-27T21:26:57.050Z,66.70
2022-11-27T21:29:25.817Z,66.70
2022-11-27T21:31:53.938Z,66.80
2022-11-27T21:34:21.195Z,66.90
2022-11-27T21:36:50.586Z,66.90
2022-11-27T21:39:20.517Z,66.90
2022-11-27T21:41:52.258Z,66.90
2022-11-27T21:44:21.816Z,66.90
2022-11-27T21:46:49.848Z,67.80
2022-11-27T21:49:21.243Z,67.00
2022-11-27T21:51:53.389Z,67.00
2022-11-27T21:54:20.975Z,67.00
2022-11-27T21:56:55.842Z,67.10
2022-11-27T21:59:24.863Z,67.10
2022-11-27T22:01:52.113Z,67.10
2022-11-27T22:04:19.407Z,67.10
2022-11-27T22:06:48.665Z,67.10
2022-11-27T22:09:18.126Z,67.10
2022-11-27T22:11:49.309Z,67.10
2022-11-27T22:14:16.784Z,67.20
2022-11-27T22:16:47.198Z,67.20
2022-11-27T22:19:15.120Z,67.10
2022-11-27T22:21:42.083Z,67.10
2022-11-27T22:24:18.256Z,67.10
2022-11-27T22:26:48.578Z,67.10
2022-11-27T22:29:15.856Z,67.10
2022-11-27T22:31:42.960Z,67.10
2022-11-27T22:34:12.007Z,67.20
2022-11-27T22:36:41.435Z,67.20
2022-11-27T22:39:09.154Z,67.10
2022-11-27T22:41:39.598Z,67.10
2022-11-27T22:44:18.512Z,67.10
2022-11-27T22:46:46.127Z,67.20
2022-11-27T22:49:17.085Z,67.20
2022-11-27T22:51:45.179Z,67.10
2022-11-27T22:54:15.181Z,67.20
2022-11-27T22:56:45.827Z,67.20
2022-11-27T23:02:00.131Z,67.10
2022-11-27T23:04:27.149Z,67.00
2022-11-27T23:06:58.626Z,67.10
2022-11-27T23:09:27.663Z,67.10
2022-11-27T23:11:56.418Z,67.10
2022-11-27T23:14:24.806Z,67.10
2022-11-27T23:16:51.853Z,67.20
2022-11-27T23:19:21.537Z,67.10
2022-11-27T23:21:48.466Z,67.20
2022-11-27T23:24:16.077Z,67.20
2022-11-27T23:26:43.980Z,67.20
2022-11-27T23:29:13.875Z,67.20
2022-11-27T23:31:40.936Z,67.20
2022-11-27T23:34:16.169Z,67.20
2022-11-27T23:36:47.780Z,67.20
2022-11-27T23:39:19.426Z,67.20
2022-11-27T23:41:49.546Z,67.40
2022-11-27T23:44:21.900Z,67.30
2022-11-27T23:46:51.787Z,67.20
2022-11-27T23:49:21.725Z,67.20
2022-11-27T23:51:51.093Z,67.30
2022-11-27T23:54:18.010Z,67.30
2022-11-27T23:56:50.281Z,67.20
2022-11-27T23:59:17.136Z,67.30
